This is the latest recevied weather packets stored in our database for station/object WD4HMR. If no packets are shown the sender has not sent any weather packets the latest 10 day(s).
| Time | Temp. | Humidity | Pressure | Rain* | Wind** | Luminosity | Snow |
|---|---|---|---|---|---|---|---|
| 1777853104 | 20° C | 44% | 1018.3 hPa | 0 mm | - | 154 W/m² | - |
| 1777849804 | 21.11° C | 38% | 1018.1 hPa | 0 mm | - | 538 W/m² | - |
| 1777849504 | 21.67° C | 39% | 1018.2 hPa | 0 mm | - | 560 W/m² | - |
| 1777848604 | 21.11° C | 39% | 1018.3 hPa | 0 mm | - | 624 W/m² | - |
| 1777848003 | 21.11° C | 38% | 1018.4 hPa | 0 mm | - | 668 W/m² | - |
| 1777845903 | 21.67° C | 38% | 1018.5 hPa | 0 mm | - | 818 W/m² | - |
| 1777845304 | 21.11° C | 39% | 1018.6 hPa | 0 mm | - | 860 W/m² | - |
| 1777844404 | 20.56° C | 39% | 1018.6 hPa | 0 mm | - | 921 W/m² | - |
| 1777843804 | 21.11° C | 38% | 1018.7 hPa | 0 mm | - | 961 W/m² | - |
| 1777843504 | 21.11° C | 40% | 1018.8 hPa | 0 mm | - | 980 W/m² | - |
| 1777842004 | 20° C | 40% | 1019 hPa | 0 mm | - | 1072 W/m² | - |
| 1777840504 | 20° C | 41% | 1019.3 hPa | 0 mm | - | 1152 W/m² | - |
| 1777839004 | 20° C | 40% | 1019.6 hPa | 0 mm | - | 1219 W/m² | - |
| 1777838715 | 19.44° C | 41% | 1019.6 hPa | 0 mm | - | 1230 W/m² | - |
| 1777838403 | 19.44° C | 41% | 1019.7 hPa | 0 mm | - | 1241 W/m² | - |
| 1777837504 | 18.89° C | 43% | 1020 hPa | 0 mm | - | 1271 W/m² | - |
| 1777836004 | 18.89° C | 46% | 1020.4 hPa | 0 mm | - | 1306 W/m² | - |
| 1777835404 | 18.33° C | 47% | 1020.6 hPa | 0 mm | - | 1315 W/m² | - |
| 1777835104 | 18.33° C | 45% | 1020.6 hPa | 0 mm | - | 1318 W/m² | - |
| 1777834504 | 18.89° C | 44% | 1020.8 hPa | 0 mm | - | 1323 W/m² | - |
| 1777831804 | 17.22° C | 48% | 1021.1 hPa | 0 mm | - | 1308 W/m² | - |
| 1777827003 | 15.56° C | 49% | 1021.8 hPa | 0 mm | - | 1143 W/m² | - |
| 1777825504 | 15.56° C | 49% | 1021.8 hPa | 0 mm | - | 1061 W/m² | - |
| 1777824904 | 15.56° C | 53% | 1021.9 hPa | 0 mm | - | 1025 W/m² | - |
| 1777824604 | 15.56° C | 50% | 1021.9 hPa | 0 mm | - | 1007 W/m² | - |
* Rain latest hour (hover to see other rain measurements)
** Current wind speed in m/s (hover to see current wind gust speed)